createdAt,value
2022-12-25T00:01:24.506Z,98982.52
2022-12-25T00:06:26.448Z,98997.21
2022-12-25T00:11:28.373Z,98998.29
2022-12-25T00:16:31.232Z,99002.85
2022-12-25T00:21:33.376Z,99009.89
2022-12-25T00:26:35.358Z,99024.04
2022-12-25T00:31:37.391Z,99023.09
2022-12-25T00:36:41.902Z,99035.27
2022-12-25T00:42:03.266Z,99033.52
2022-12-25T00:47:05.339Z,99038.41
2022-12-25T00:52:07.886Z,99035.95
2022-12-25T00:57:09.909Z,99045.23
2022-12-25T01:06:13.017Z,99070.65
2022-12-25T01:11:15.007Z,99071.77
2022-12-25T01:16:17.812Z,99076.56
2022-12-25T01:21:21.342Z,99080.52
2022-12-25T01:26:25.997Z,99082.11
2022-12-25T01:31:27.904Z,99082.41
2022-12-25T01:36:30.052Z,99085.09
2022-12-25T01:41:32.195Z,99093.54
2022-12-25T01:46:35.402Z,99094.13
2022-12-25T01:51:48.480Z,99106.48
2022-12-25T01:56:53.536Z,99106.20
2022-12-25T02:01:57.254Z,99111.41
2022-12-25T02:06:59.447Z,99107.67
2022-12-25T02:12:01.671Z,99113.55
2022-12-25T02:17:29.928Z,99116.44
2022-12-25T02:23:01.497Z,99121.13
2022-12-25T02:28:28.141Z,99123.67
2022-12-25T02:34:02.904Z,99120.63
2022-12-25T02:39:31.387Z,99118.21
2022-12-25T02:44:55.101Z,99117.50
2022-12-25T02:50:18.360Z,99118.40
2022-12-25T02:55:44.881Z,99120.19
2022-12-25T03:01:11.625Z,99133.98
2022-12-25T03:06:34.440Z,99126.16
2022-12-25T03:11:36.440Z,99122.96
2022-12-25T03:16:50.639Z,99125.73
2022-12-25T03:22:13.259Z,99133.75
2022-12-25T03:27:15.658Z,99129.23
2022-12-25T03:32:34.044Z,99137.88
2022-12-25T03:38:09.744Z,99143.07
2022-12-25T03:43:48.668Z,99135.83
2022-12-25T03:49:21.811Z,99141.88
2022-12-25T03:54:46.826Z,99147.95
2022-12-25T04:00:07.443Z,99162.02
2022-12-25T04:05:29.730Z,99167.99
2022-12-25T04:10:50.701Z,99173.10
2022-12-25T04:16:12.422Z,99184.30
2022-12-25T04:21:33.481Z,99192.64
2022-12-25T04:26:54.158Z,99194.83
2022-12-25T04:32:14.707Z,99193.36
2022-12-25T04:37:16.730Z,99196.77
2022-12-25T04:42:18.834Z,99199.60
2022-12-25T04:47:20.791Z,99199.11
2022-12-25T04:52:22.768Z,99191.14
2022-12-25T04:57:24.719Z,99196.04
2022-12-25T05:02:26.820Z,99197.55
2022-12-25T05:07:28.991Z,99200.95
2022-12-25T05:12:30.996Z,99208.59
2022-12-25T05:17:32.953Z,99212.41
2022-12-25T05:22:34.984Z,99219.91
2022-12-25T05:27:36.963Z,99219.59
2022-12-25T05:32:39.082Z,99224.31
2022-12-25T05:37:41.140Z,99232.66
2022-12-25T05:42:43.204Z,99238.18
2022-12-25T05:47:49.061Z,99234.73
2022-12-25T05:52:51.053Z,99242.36
2022-12-25T05:57:53.000Z,99241.23
2022-12-25T06:02:55.070Z,99251.26
2022-12-25T06:07:57.264Z,99257.03
2022-12-25T06:12:59.443Z,99262.77
2022-12-25T06:18:01.842Z,99258.41
2022-12-25T06:23:03.928Z,99266.40
2022-12-25T06:28:06.830Z,99276.45
2022-12-25T06:33:08.801Z,99285.09
2022-12-25T06:38:10.801Z,99291.39
2022-12-25T06:43:12.837Z,99295.23
2022-12-25T06:48:14.759Z,99298.42
2022-12-25T06:53:16.834Z,99317.80
2022-12-25T06:58:18.737Z,99330.63
2022-12-25T07:03:22.159Z,99343.70
2022-12-25T07:08:24.125Z,99355.83
2022-12-25T07:13:26.346Z,99364.34
2022-12-25T07:18:29.529Z,99374.73
2022-12-25T07:23:31.540Z,99376.89
2022-12-25T07:28:34.045Z,99379.16
2022-12-25T07:33:36.508Z,99380.96
2022-12-25T07:38:38.496Z,99377.98
2022-12-25T07:43:40.777Z,99372.83
2022-12-25T07:48:42.873Z,99369.39
2022-12-25T07:53:45.042Z,99370.79
2022-12-25T07:58:47.248Z,99373.42
2022-12-25T08:03:51.487Z,99375.90
2022-12-25T08:08:53.435Z,99379.46
2022-12-25T08:13:56.483Z,99385.36
2022-12-25T08:18:58.355Z,99391.96
2022-12-25T08:24:00.474Z,99384.95
2022-12-25T08:29:02.539Z,99376.80
2022-12-25T08:34:04.942Z,99372.32
2022-12-25T08:39:07.526Z,99377.54
2022-12-25T08:44:12.021Z,99380.45
2022-12-25T08:49:13.796Z,99396.94
2022-12-25T08:54:15.830Z,99403.90
2022-12-25T08:59:17.755Z,99407.21
2022-12-25T09:04:19.661Z,99406.88
2022-12-25T09:09:26.416Z,99406.89
2022-12-25T09:14:28.563Z,99405.57
2022-12-25T09:19:31.030Z,99409.59
2022-12-25T09:24:33.033Z,99410.95
2022-12-25T09:29:35.004Z,99410.34
2022-12-25T09:34:36.952Z,99421.92
2022-12-25T09:39:43.974Z,99418.71
2022-12-25T09:45:15.259Z,99420.46
2022-12-25T09:50:23.740Z,99419.19
2022-12-25T09:55:29.347Z,99416.94
2022-12-25T10:00:38.199Z,99414.19
2022-12-25T10:05:59.080Z,99412.95
2022-12-25T10:11:46.752Z,99412.38
2022-12-25T10:16:48.721Z,99403.23
2022-12-25T10:21:58.779Z,99393.80
2022-12-25T10:27:05.438Z,99395.39
2022-12-25T10:32:10.311Z,99396.86
2022-12-25T10:37:12.684Z,99393.91
2022-12-25T10:42:34.585Z,99391.04
2022-12-25T10:47:42.776Z,99386.37
2022-12-25T10:52:52.003Z,99382.15
2022-12-25T10:57:54.278Z,99372.70
2022-12-25T11:02:57.032Z,99373.14
2022-12-25T11:08:01.731Z,99371.55
2022-12-25T11:13:08.057Z,99374.28
2022-12-25T11:18:27.522Z,99373.55
2022-12-25T11:23:32.593Z,99365.38
2022-12-25T11:28:37.691Z,99354.17
2022-12-25T11:33:53.888Z,99343.58
2022-12-25T11:38:59.515Z,99332.83
2022-12-25T11:44:10.869Z,99322.41
2022-12-25T11:49:18.138Z,99317.69
2022-12-25T11:54:26.567Z,99318.92
2022-12-25T11:59:38.724Z,99328.81
2022-12-25T12:04:44.745Z,99310.88
2022-12-25T12:10:02.140Z,99302.30
2022-12-25T12:15:14.123Z,99298.96
2022-12-25T12:20:34.537Z,99305.55
2022-12-25T12:25:40.995Z,99313.09
2022-12-25T12:30:42.963Z,99307.66
2022-12-25T12:35:45.394Z,99299.23
2022-12-25T12:40:56.032Z,99297.58
2022-12-25T12:46:07.142Z,99289.56
2022-12-25T12:51:26.311Z,99290.14
2022-12-25T12:56:28.217Z,99304.34
2022-12-25T13:01:39.286Z,99298.99
2022-12-25T13:06:51.837Z,99311.67
2022-12-25T13:11:55.062Z,99317.95
2022-12-25T13:16:56.999Z,99322.80
2022-12-25T13:22:01.758Z,99314.33
2022-12-25T13:27:23.331Z,99315.01
2022-12-25T13:32:29.998Z,99316.70
2022-12-25T13:37:32.039Z,99316.66
2022-12-25T13:42:37.682Z,99316.54
2022-12-25T13:47:48.676Z,99311.57
2022-12-25T13:52:56.246Z,99316.66
2022-12-25T13:58:04.523Z,99303.67
2022-12-25T14:03:07.947Z,99305.47
2022-12-25T14:08:19.317Z,99303.11
2022-12-25T14:13:26.944Z,99309.42
2022-12-25T14:18:30.894Z,99311.37
2022-12-25T14:23:45.960Z,99296.55
2022-12-25T14:28:50.749Z,99291.45
2022-12-25T14:33:54.178Z,99272.42
2022-12-25T14:39:02.001Z,99259.45
2022-12-25T14:44:25.002Z,99280.25
2022-12-25T14:49:32.373Z,99286.85
2022-12-25T14:54:34.321Z,99297.11
2022-12-25T14:59:36.157Z,99305.25
2022-12-25T15:04:37.957Z,99313.95
2022-12-25T15:09:40.673Z,99323.38
2022-12-25T15:14:42.480Z,99317.54
2022-12-25T15:19:44.480Z,99292.77
2022-12-25T15:24:46.708Z,99267.80
2022-12-25T15:35:15.508Z,99261.08
2022-12-25T15:40:17.610Z,99239.02
2022-12-25T15:45:28.131Z,99231.38
2022-12-25T15:50:30.322Z,99233.27
2022-12-25T15:55:32.337Z,99243.90
2022-12-25T16:00:34.280Z,99244.52
2022-12-25T16:05:36.248Z,99230.73
2022-12-25T16:10:39.141Z,99234.58
2022-12-25T16:15:42.596Z,99239.57
2022-12-25T16:20:44.609Z,99237.79
2022-12-25T16:25:46.965Z,99244.61
2022-12-25T16:30:49.906Z,99243.77
2022-12-25T16:35:52.705Z,99241.08
2022-12-25T16:40:57.398Z,99230.52
2022-12-25T16:45:59.641Z,99225.69
2022-12-25T16:51:08.553Z,99229.65
2022-12-25T16:56:14.834Z,99228.80
2022-12-25T17:01:19.500Z,99221.39
2022-12-25T17:06:25.910Z,99213.75
2022-12-25T17:11:30.204Z,99201.59
2022-12-25T17:16:36.865Z,99187.14
2022-12-25T17:21:38.868Z,99172.98
2022-12-25T17:26:41.702Z,99169.68
2022-12-25T17:31:44.952Z,99177.31
2022-12-25T17:36:47.880Z,99173.27
2022-12-25T17:41:50.953Z,99186.17
2022-12-25T17:46:53.042Z,99196.91
2022-12-25T17:51:55.144Z,99197.62
2022-12-25T17:56:57.363Z,99191.02
2022-12-25T18:01:59.408Z,99183.38
2022-12-25T18:07:03.387Z,99172.86
2022-12-25T18:12:06.035Z,99171.50
2022-12-25T18:17:08.060Z,99164.05
2022-12-25T18:22:10.031Z,99174.35
2022-12-25T18:27:12.086Z,99167.58
2022-12-25T18:32:14.219Z,99162.27
2022-12-25T18:37:16.251Z,99158.72
2022-12-25T18:42:36.672Z,99158.92
2022-12-25T18:47:39.460Z,99148.73
2022-12-25T18:52:48.165Z,99138.00
2022-12-25T18:57:53.538Z,99138.61
2022-12-25T19:02:58.497Z,99142.58
2022-12-25T19:08:00.589Z,99146.42
2022-12-25T19:13:02.988Z,99150.35
2022-12-25T19:18:05.281Z,99151.33
2022-12-25T19:23:08.734Z,99140.31
2022-12-25T19:28:11.619Z,99129.47
2022-12-25T19:33:17.650Z,99127.66
2022-12-25T19:38:20.567Z,99123.86
2022-12-25T19:43:22.614Z,99116.48
2022-12-25T19:48:24.982Z,99106.20
2022-12-25T19:53:28.925Z,99101.70
2022-12-25T19:58:30.906Z,99089.94
2022-12-25T20:03:38.827Z,99075.80
2022-12-25T20:08:51.693Z,99063.06
2022-12-25T20:13:54.145Z,99058.28
2022-12-25T20:18:59.051Z,99055.24
2022-12-25T20:24:01.036Z,99049.64
2022-12-25T20:29:04.244Z,99052.70
2022-12-25T20:34:09.566Z,99052.64
2022-12-25T20:39:12.972Z,99046.65
2022-12-25T20:44:15.122Z,99039.45
2022-12-25T20:49:18.738Z,99023.10
2022-12-25T20:54:20.800Z,99024.27
2022-12-25T20:59:22.849Z,99027.19
2022-12-25T21:04:25.511Z,99029.17
2022-12-25T21:09:27.274Z,99007.27
2022-12-25T21:14:29.645Z,98992.59
2022-12-25T21:19:31.659Z,98990.34
2022-12-25T21:24:33.472Z,99005.48
2022-12-25T21:29:35.450Z,99015.08
2022-12-25T21:34:37.767Z,99006.63
2022-12-25T21:39:39.782Z,99000.42
2022-12-25T21:44:42.143Z,99001.85
2022-12-25T21:50:03.049Z,99007.70
2022-12-25T21:55:06.112Z,98992.04
2022-12-25T22:00:09.132Z,98980.88
2022-12-25T22:05:31.084Z,98989.08
2022-12-25T22:10:36.443Z,98978.38
2022-12-25T22:15:57.105Z,98980.74
2022-12-25T22:20:59.695Z,98984.35
2022-12-25T22:26:05.062Z,98986.22
2022-12-25T22:31:09.099Z,98979.34
2022-12-25T22:36:13.456Z,98968.59
2022-12-25T22:41:15.438Z,98961.40
2022-12-25T22:46:17.409Z,98958.48
2022-12-25T22:51:19.442Z,98965.05
2022-12-25T22:56:21.495Z,98961.55
2022-12-25T23:01:23.364Z,98966.27
2022-12-25T23:06:25.213Z,98968.64
2022-12-25T23:11:27.679Z,98965.45
2022-12-25T23:16:29.993Z,98953.32
2022-12-25T23:21:50.958Z,98950.95
2022-12-25T23:26:52.894Z,98943.14
2022-12-25T23:36:15.406Z,98933.39
2022-12-25T23:41:17.377Z,98929.05
2022-12-25T23:46:19.693Z,98919.80
2022-12-25T23:51:21.871Z,98905.55
2022-12-25T23:56:23.890Z,98902.24
